createdAt,value
2022-10-05T00:01:38.031Z,96.15
2022-10-05T00:04:15.751Z,96.52
2022-10-05T00:06:48.451Z,96.24
2022-10-05T00:09:21.356Z,96.75
2022-10-05T00:11:52.072Z,96.43
2022-10-05T00:14:28.042Z,95.85
2022-10-05T00:16:58.562Z,94.81
2022-10-05T00:19:33.114Z,95.27
2022-10-05T00:22:12.995Z,95.42
2022-10-05T00:24:44.376Z,94.98
2022-10-05T00:27:20.859Z,95.27
2022-10-05T00:29:52.834Z,94.95
2022-10-05T00:32:23.854Z,95.67
2022-10-05T00:34:53.690Z,95.64
2022-10-05T00:37:23.554Z,95.93
2022-10-05T00:39:54.976Z,95.28
2022-10-05T00:42:40.655Z,94.86
2022-10-05T00:45:16.869Z,95.27
2022-10-05T00:47:56.914Z,94.82
2022-10-05T00:51:53.448Z,95.07
2022-10-05T00:54:36.209Z,94.77
2022-10-05T00:57:24.169Z,94.57
2022-10-05T01:00:07.752Z,94.23
2022-10-05T01:02:51.896Z,93.73
2022-10-05T01:05:44.691Z,94.10
2022-10-05T01:08:32.315Z,93.75
2022-10-05T01:11:16.775Z,93.53
2022-10-05T01:13:57.830Z,92.72
2022-10-05T01:16:41.322Z,92.69
2022-10-05T01:19:48.591Z,93.08
2022-10-05T01:22:31.839Z,92.67
2022-10-05T01:25:21.474Z,92.77
2022-10-05T01:28:04.587Z,92.42
2022-10-05T01:30:39.614Z,92.11
2022-10-05T01:33:20.791Z,91.91
2022-10-05T01:36:02.193Z,91.96
2022-10-05T01:38:46.884Z,92.39
2022-10-05T01:41:32.809Z,91.99
2022-10-05T01:44:09.713Z,92.04
2022-10-05T01:46:45.484Z,91.84
2022-10-05T01:49:36.375Z,91.10
2022-10-05T01:52:22.951Z,91.91
2022-10-05T01:55:11.717Z,91.61
2022-10-05T01:58:05.210Z,91.81
2022-10-05T02:00:49.538Z,91.96
2022-10-05T02:03:22.918Z,92.48
2022-10-05T02:06:00.036Z,91.63
2022-10-05T02:08:36.833Z,91.65
2022-10-05T02:11:11.149Z,91.37
2022-10-05T02:13:44.969Z,91.40
2022-10-05T02:16:21.420Z,91.50
2022-10-05T02:18:56.374Z,91.51
2022-10-05T02:21:27.233Z,91.44
2022-10-05T02:24:04.053Z,91.17
2022-10-05T02:26:37.174Z,91.09
2022-10-05T02:29:11.793Z,90.81
2022-10-05T02:31:50.800Z,91.03
2022-10-05T02:34:27.149Z,91.04
2022-10-05T02:37:20.570Z,90.86
2022-10-05T02:40:18.454Z,91.52
2022-10-05T02:43:02.246Z,91.58
2022-10-05T02:45:43.934Z,91.31
2022-10-05T02:48:26.254Z,91.40
2022-10-05T02:51:06.495Z,91.25
2022-10-05T02:53:46.536Z,91.05
2022-10-05T02:56:28.209Z,90.86
2022-10-05T02:59:06.590Z,91.04
2022-10-05T03:01:45.370Z,90.94
2022-10-05T03:04:34.554Z,91.60
2022-10-05T03:07:15.275Z,91.10
2022-10-05T03:09:52.334Z,91.19
2022-10-05T03:12:43.744Z,91.27
2022-10-05T03:15:29.254Z,90.93
2022-10-05T03:18:08.699Z,90.98
2022-10-05T03:20:50.252Z,91.32
2022-10-05T03:23:31.325Z,91.22
2022-10-05T03:26:20.149Z,91.40
2022-10-05T03:29:01.935Z,91.60
2022-10-05T03:31:41.259Z,91.65
2022-10-05T03:34:18.772Z,91.83
2022-10-05T03:36:58.012Z,91.47
2022-10-05T03:39:38.163Z,91.72
2022-10-05T03:42:17.569Z,91.24
2022-10-05T03:44:55.771Z,90.90
2022-10-05T03:47:35.195Z,91.86
2022-10-05T03:52:50.717Z,92.11
2022-10-05T03:55:27.885Z,92.63
2022-10-05T03:58:05.115Z,92.13
2022-10-05T04:00:37.175Z,92.10
2022-10-05T04:03:13.055Z,92.16
2022-10-05T04:05:50.751Z,91.98
2022-10-05T04:08:31.214Z,91.74
2022-10-05T04:11:06.009Z,91.77
2022-10-05T04:13:41.994Z,91.95
2022-10-05T04:16:19.379Z,92.07
2022-10-05T04:18:56.450Z,91.76
2022-10-05T04:21:31.871Z,92.12
2022-10-05T04:24:11.334Z,92.01
2022-10-05T04:26:48.278Z,92.15
2022-10-05T04:29:30.070Z,91.60
2022-10-05T04:32:20.108Z,91.56
2022-10-05T04:35:04.754Z,91.83
2022-10-05T04:37:46.698Z,91.71
2022-10-05T04:40:39.338Z,92.15
2022-10-05T04:43:18.213Z,91.97
2022-10-05T04:46:10.922Z,92.23
2022-10-05T04:49:04.749Z,91.79
2022-10-05T04:51:47.751Z,91.68
2022-10-05T04:54:37.254Z,91.84
2022-10-05T04:57:18.130Z,92.45
2022-10-05T05:00:07.135Z,92.85
2022-10-05T05:02:53.714Z,92.81
2022-10-05T05:05:48.366Z,92.36
2022-10-05T05:08:49.623Z,92.32
2022-10-05T05:11:33.934Z,92.40
2022-10-05T05:14:40.955Z,92.69
2022-10-05T05:17:28.780Z,92.77
2022-10-05T05:20:11.011Z,92.51
2022-10-05T05:22:51.889Z,92.33
2022-10-05T05:25:43.791Z,91.78
2022-10-05T05:28:25.325Z,92.09
2022-10-05T05:31:11.083Z,92.09
2022-10-05T05:33:56.314Z,92.18
2022-10-05T05:36:54.271Z,91.94
2022-10-05T05:39:30.414Z,92.12
2022-10-05T05:42:18.650Z,91.88
2022-10-05T05:44:52.690Z,92.09
2022-10-05T05:47:30.285Z,91.59
2022-10-05T05:50:22.410Z,91.62
2022-10-05T05:52:58.990Z,91.37
2022-10-05T05:55:34.869Z,91.14
2022-10-05T05:58:13.482Z,90.65
2022-10-05T06:00:50.393Z,91.68
2022-10-05T06:03:27.948Z,91.50
2022-10-05T06:06:01.590Z,91.55
2022-10-05T06:08:38.030Z,91.78
2022-10-05T06:11:16.297Z,92.08
2022-10-05T06:13:46.752Z,92.11
2022-10-05T06:16:24.179Z,92.54
2022-10-05T06:19:01.310Z,92.73
2022-10-05T06:21:37.083Z,92.08
2022-10-05T06:24:16.010Z,92.61
2022-10-05T06:27:19.170Z,92.96
2022-10-05T06:30:08.474Z,92.92
2022-10-05T06:32:54.851Z,92.94
2022-10-05T06:35:46.316Z,92.45
2022-10-05T06:38:40.679Z,92.67
2022-10-05T06:41:23.501Z,88.28
2022-10-05T06:44:01.024Z,87.08
2022-10-05T06:46:36.211Z,84.38
2022-10-05T06:53:06.449Z,80.19
2022-10-05T06:55:47.389Z,78.29
2022-10-05T06:58:38.903Z,75.97
2022-10-05T07:01:16.261Z,75.56
2022-10-05T07:04:10.619Z,74.56
2022-10-05T07:06:46.809Z,73.92
2022-10-05T07:09:38.542Z,71.74
2022-10-05T07:12:45.801Z,71.46
2022-10-05T07:15:46.718Z,71.22
2022-10-05T07:18:39.955Z,70.68
2022-10-05T07:21:21.802Z,71.08
2022-10-05T07:24:01.471Z,69.79
2022-10-05T07:26:39.277Z,67.49
2022-10-05T07:29:24.893Z,67.58
2022-10-05T07:32:12.761Z,67.27
2022-10-05T07:34:56.571Z,66.02
2022-10-05T07:37:54.763Z,66.32
2022-10-05T07:40:30.994Z,66.04
2022-10-05T07:43:25.036Z,65.83
2022-10-05T07:46:03.462Z,64.14
2022-10-05T07:48:52.478Z,62.69
2022-10-05T07:51:32.151Z,61.13
2022-10-05T07:54:18.853Z,61.94
2022-10-05T07:56:54.358Z,61.81
2022-10-05T07:59:36.263Z,61.26
2022-10-05T08:02:16.712Z,59.39
2022-10-05T08:04:59.279Z,57.77
2022-10-05T08:07:33.312Z,58.01
2022-10-05T08:10:20.011Z,60.01
2022-10-05T08:13:08.991Z,58.44
2022-10-05T08:15:45.129Z,58.36
2022-10-05T08:18:23.554Z,56.35
2022-10-05T08:20:58.435Z,57.58
2022-10-05T08:23:36.342Z,57.17
2022-10-05T08:26:19.295Z,57.59
2022-10-05T08:28:57.132Z,59.12
2022-10-05T08:31:33.384Z,57.50
2022-10-05T08:34:21.413Z,56.72
2022-10-05T08:37:00.643Z,56.80
2022-10-05T08:39:35.671Z,56.26
2022-10-05T08:42:38.360Z,56.42
2022-10-05T08:45:53.064Z,55.01
2022-10-05T08:48:41.572Z,55.75
2022-10-05T08:51:39.379Z,55.45
2022-10-05T08:54:52.873Z,53.99
2022-10-05T08:57:56.511Z,54.89
2022-10-05T09:00:29.193Z,54.63
2022-10-05T09:04:01.693Z,53.37
2022-10-05T09:07:10.833Z,54.52
2022-10-05T09:10:20.044Z,54.18
2022-10-05T09:13:21.594Z,54.00
2022-10-05T09:16:31.916Z,52.21
2022-10-05T09:19:57.695Z,51.54
2022-10-05T09:22:46.693Z,50.17
2022-10-05T09:25:25.033Z,53.10
2022-10-05T09:27:59.090Z,53.33
2022-10-05T09:30:43.579Z,54.09
2022-10-05T09:34:20.558Z,52.09
2022-10-05T09:37:21.437Z,52.97
2022-10-05T09:40:42.752Z,53.52
2022-10-05T09:44:10.397Z,53.10
2022-10-05T09:47:04.955Z,52.87
2022-10-05T09:53:10.379Z,53.56
2022-10-05T09:56:40.116Z,52.53
2022-10-05T10:00:01.927Z,50.94
2022-10-05T10:03:05.563Z,53.98
2022-10-05T10:06:03.754Z,55.14
2022-10-05T10:08:53.412Z,54.63
2022-10-05T10:11:49.544Z,53.69
2022-10-05T10:14:51.274Z,53.83
2022-10-05T10:17:50.673Z,54.96
2022-10-05T10:20:36.697Z,54.81
2022-10-05T10:23:30.649Z,55.39
2022-10-05T10:26:52.631Z,55.41
2022-10-05T10:30:05.031Z,54.31
2022-10-05T10:33:16.198Z,54.12
2022-10-05T10:35:57.163Z,55.03
2022-10-05T10:38:43.292Z,55.55
2022-10-05T10:42:05.758Z,54.86
2022-10-05T10:45:21.446Z,55.06
2022-10-05T10:48:13.111Z,54.02
2022-10-05T10:51:16.137Z,50.98
2022-10-05T10:54:23.537Z,51.21
2022-10-05T10:57:11.673Z,53.18
2022-10-05T11:00:26.033Z,53.18
2022-10-05T11:03:32.456Z,51.54
2022-10-05T11:06:46.631Z,50.82
2022-10-05T11:10:26.352Z,50.97
2022-10-05T11:13:29.093Z,51.76
2022-10-05T11:16:51.920Z,50.02
2022-10-05T11:20:06.164Z,51.46
2022-10-05T11:22:56.634Z,51.42
2022-10-05T11:26:06.111Z,51.20
2022-10-05T11:29:17.763Z,51.74
2022-10-05T11:32:45.519Z,53.35
2022-10-05T11:35:57.094Z,53.25
2022-10-05T11:39:14.534Z,54.87
2022-10-05T11:42:45.894Z,55.73
2022-10-05T11:45:44.889Z,56.97
2022-10-05T11:48:56.934Z,55.08
2022-10-05T11:51:42.666Z,55.01
2022-10-05T11:57:53.070Z,51.14
2022-10-05T12:00:26.178Z,51.51
2022-10-05T12:03:43.187Z,52.02
2022-10-05T12:06:35.634Z,50.89
2022-10-05T12:09:24.675Z,49.92
2022-10-05T12:12:11.950Z,47.50
2022-10-05T12:14:54.452Z,48.12
2022-10-05T12:17:28.815Z,47.72
2022-10-05T12:20:04.135Z,46.73
2022-10-05T12:22:41.856Z,45.09
2022-10-05T12:25:31.990Z,47.69
2022-10-05T12:28:10.183Z,46.05
2022-10-05T12:31:16.044Z,45.12
2022-10-05T12:33:56.177Z,47.94
2022-10-05T12:36:59.198Z,48.93
2022-10-05T12:39:37.055Z,48.76
2022-10-05T12:42:18.413Z,47.47
2022-10-05T12:45:18.492Z,48.85
2022-10-05T12:48:10.515Z,50.15
2022-10-05T12:53:11.985Z,52.36
2022-10-05T12:55:54.293Z,53.06
2022-10-05T12:58:34.960Z,53.50
2022-10-05T13:01:15.957Z,53.65
2022-10-05T13:03:54.756Z,53.30
2022-10-05T13:06:37.832Z,54.14
2022-10-05T13:09:14.894Z,55.06
2022-10-05T13:11:50.533Z,55.57
2022-10-05T13:14:44.896Z,55.04
2022-10-05T13:17:22.458Z,54.54
2022-10-05T13:20:00.499Z,57.20
2022-10-05T13:22:38.294Z,58.77
2022-10-05T13:25:28.860Z,59.99
2022-10-05T13:28:17.639Z,60.89
2022-10-05T13:30:58.813Z,60.27
2022-10-05T13:33:56.794Z,62.06
2022-10-05T13:36:38.774Z,63.11
2022-10-05T13:39:32.372Z,63.76
2022-10-05T13:42:13.056Z,63.94
2022-10-05T13:44:52.831Z,64.62
2022-10-05T13:47:33.554Z,62.47
2022-10-05T13:50:09.146Z,61.96
2022-10-05T13:52:52.635Z,61.65
2022-10-05T13:55:41.755Z,61.91
2022-10-05T13:58:24.954Z,61.70
2022-10-05T14:00:57.800Z,58.68
2022-10-05T14:03:32.647Z,56.56
2022-10-05T14:06:06.943Z,56.76
2022-10-05T14:08:49.657Z,54.74
2022-10-05T14:11:32.090Z,55.23
2022-10-05T14:14:18.615Z,55.65
2022-10-05T14:16:54.885Z,54.54
2022-10-05T14:19:32.769Z,55.86
2022-10-05T14:22:05.396Z,56.26
2022-10-05T14:24:45.412Z,55.25
2022-10-05T14:27:24.220Z,54.96
2022-10-05T14:30:08.401Z,56.46
2022-10-05T14:32:56.415Z,57.16
2022-10-05T14:35:30.284Z,56.81
2022-10-05T14:38:03.029Z,56.23
2022-10-05T14:40:36.432Z,57.62
2022-10-05T14:43:21.974Z,57.86
2022-10-05T14:46:03.064Z,59.00
2022-10-05T14:48:43.937Z,59.49
2022-10-05T14:51:25.910Z,59.66
2022-10-05T14:54:01.710Z,60.37
2022-10-05T14:56:49.037Z,60.59
2022-10-05T14:59:49.683Z,60.65
2022-10-05T15:03:09.355Z,61.09
2022-10-05T15:05:46.771Z,62.38
2022-10-05T15:08:45.495Z,62.06
2022-10-05T15:11:26.214Z,62.22
2022-10-05T15:13:58.074Z,62.86
2022-10-05T15:16:32.593Z,64.60
2022-10-05T15:19:14.613Z,63.75
2022-10-05T15:22:06.874Z,63.45
2022-10-05T15:24:45.816Z,63.18
2022-10-05T15:27:28.049Z,63.57
2022-10-05T15:30:09.777Z,63.63
2022-10-05T15:32:58.074Z,63.88
2022-10-05T15:36:03.313Z,63.85
2022-10-05T15:38:41.034Z,64.81
2022-10-05T15:41:17.638Z,64.88
2022-10-05T15:44:06.220Z,66.45
2022-10-05T15:46:43.171Z,66.96
2022-10-05T15:52:55.897Z,68.18
2022-10-05T15:55:47.370Z,69.38
2022-10-05T15:58:50.289Z,70.95
2022-10-05T16:01:23.976Z,70.74
2022-10-05T16:04:00.269Z,70.37
2022-10-05T16:07:00.999Z,70.04
2022-10-05T16:09:52.394Z,68.81
2022-10-05T16:12:37.616Z,68.39
2022-10-05T16:15:22.437Z,67.92
2022-10-05T16:18:34.374Z,67.59
2022-10-05T16:21:17.515Z,67.98
2022-10-05T16:24:06.534Z,68.83
2022-10-05T16:26:58.549Z,71.50
2022-10-05T16:29:41.335Z,73.52
2022-10-05T16:32:16.091Z,74.52
2022-10-05T16:35:03.174Z,76.64
2022-10-05T16:37:42.812Z,78.79
2022-10-05T16:40:30.212Z,79.49
2022-10-05T16:43:19.602Z,79.98
2022-10-05T16:46:10.027Z,80.96
2022-10-05T16:48:51.632Z,81.06
2022-10-05T16:51:30.496Z,81.40
2022-10-05T16:54:18.699Z,82.06
2022-10-05T16:56:53.892Z,83.12
2022-10-05T17:00:17.034Z,83.06
2022-10-05T17:03:22.129Z,83.66
2022-10-05T17:06:39.070Z,83.81
2022-10-05T17:09:40.569Z,84.65
2022-10-05T17:12:36.893Z,84.69
2022-10-05T17:15:30.355Z,84.56
2022-10-05T17:18:23.961Z,84.41
2022-10-05T17:21:08.115Z,84.92
2022-10-05T17:23:55.142Z,84.84
2022-10-05T17:26:56.495Z,85.02
2022-10-05T17:29:33.521Z,86.53
2022-10-05T17:32:36.310Z,86.38
2022-10-05T17:35:22.505Z,86.37
2022-10-05T17:38:20.491Z,86.03
2022-10-05T17:41:19.192Z,86.58
2022-10-05T17:44:26.543Z,86.13
2022-10-05T17:47:04.210Z,85.97
2022-10-05T17:50:18.213Z,86.38
2022-10-05T17:53:38.290Z,87.43
2022-10-05T17:56:08.535Z,87.24
2022-10-05T17:59:00.577Z,86.86
2022-10-05T18:01:34.724Z,87.22
2022-10-05T18:04:34.031Z,87.17
2022-10-05T18:07:25.653Z,87.04
2022-10-05T18:10:02.681Z,87.46
2022-10-05T18:13:22.984Z,87.61
2022-10-05T18:15:53.203Z,87.25
2022-10-05T18:18:59.678Z,88.15
2022-10-05T18:21:37.583Z,88.17
2022-10-05T18:24:56.140Z,88.08
2022-10-05T18:28:00.638Z,89.02
2022-10-05T18:30:39.927Z,89.05
2022-10-05T18:33:54.071Z,88.50
2022-10-05T18:36:53.150Z,88.72
2022-10-05T18:39:50.691Z,88.67
2022-10-05T18:42:30.693Z,88.46
2022-10-05T18:45:12.768Z,88.12
2022-10-05T18:47:55.714Z,88.24
2022-10-05T18:53:07.411Z,88.15
2022-10-05T18:55:43.921Z,88.62
2022-10-05T18:58:28.166Z,88.96
2022-10-05T19:01:28.231Z,88.11
2022-10-05T19:04:11.241Z,87.87
2022-10-05T19:06:46.356Z,87.63
2022-10-05T19:09:36.571Z,87.50
2022-10-05T19:12:20.331Z,87.50
2022-10-05T19:15:01.140Z,87.18
2022-10-05T19:17:56.069Z,86.78
2022-10-05T19:20:37.649Z,86.81
2022-10-05T19:23:27.903Z,87.75
2022-10-05T19:26:12.709Z,87.62
2022-10-05T19:28:55.392Z,87.84
2022-10-05T19:31:36.238Z,87.88
2022-10-05T19:34:23.796Z,87.50
2022-10-05T19:37:08.272Z,87.75
2022-10-05T19:39:52.175Z,87.85
2022-10-05T19:42:49.062Z,87.47
2022-10-05T19:45:25.217Z,87.19
2022-10-05T19:48:12.802Z,86.90
2022-10-05T19:50:55.352Z,86.34
2022-10-05T19:53:32.316Z,86.40
2022-10-05T19:56:20.625Z,86.71
2022-10-05T19:58:58.933Z,86.34
2022-10-05T20:01:34.330Z,86.74
2022-10-05T20:04:05.410Z,86.80
2022-10-05T20:06:35.758Z,87.03
2022-10-05T20:09:23.348Z,87.09
2022-10-05T20:11:54.120Z,86.55
2022-10-05T20:14:33.259Z,86.67
2022-10-05T20:17:45.422Z,88.10
2022-10-05T20:20:39.676Z,88.37
2022-10-05T20:23:23.941Z,88.02
2022-10-05T20:26:11.512Z,88.21
2022-10-05T20:28:41.360Z,87.38
2022-10-05T20:31:14.803Z,87.56
2022-10-05T20:33:44.649Z,87.84
2022-10-05T20:36:14.332Z,87.36
2022-10-05T20:38:45.749Z,87.45
2022-10-05T20:41:16.935Z,87.04
2022-10-05T20:43:46.792Z,87.47
2022-10-05T20:46:18.072Z,86.75
2022-10-05T20:48:48.209Z,87.45
2022-10-05T20:51:18.591Z,86.99
2022-10-05T20:53:48.392Z,86.95
2022-10-05T20:56:20.253Z,87.27
2022-10-05T20:58:50.350Z,87.00
2022-10-05T21:01:29.247Z,87.49
2022-10-05T21:03:59.211Z,87.64
2022-10-05T21:06:29.994Z,86.96
2022-10-05T21:08:59.751Z,87.35
2022-10-05T21:11:29.672Z,88.16
2022-10-05T21:14:04.799Z,87.77
2022-10-05T21:16:38.423Z,87.46
2022-10-05T21:19:09.758Z,87.75
2022-10-05T21:21:40.070Z,87.72
2022-10-05T21:24:11.596Z,87.97
2022-10-05T21:26:41.992Z,87.89
2022-10-05T21:29:13.550Z,88.38
2022-10-05T21:31:44.857Z,88.63
2022-10-05T21:34:14.650Z,88.02
2022-10-05T21:36:44.574Z,88.28
2022-10-05T21:39:14.354Z,87.67
2022-10-05T21:41:44.291Z,88.10
2022-10-05T21:44:14.019Z,88.33
2022-10-05T21:46:45.574Z,88.75
2022-10-05T21:52:44.952Z,89.01
2022-10-05T21:55:14.727Z,89.36
2022-10-05T21:57:45.675Z,89.38
2022-10-05T22:00:17.051Z,89.11
2022-10-05T22:02:46.834Z,88.58
2022-10-05T22:05:16.811Z,89.42
2022-10-05T22:07:48.211Z,89.46
2022-10-05T22:10:18.490Z,89.48
2022-10-05T22:12:48.621Z,89.65
2022-10-05T22:15:18.491Z,89.99
2022-10-05T22:17:48.289Z,90.43
2022-10-05T22:20:20.631Z,91.06
2022-10-05T22:22:52.063Z,91.04
2022-10-05T22:25:22.478Z,91.02
2022-10-05T22:27:52.891Z,91.12
2022-10-05T22:30:23.050Z,90.98
2022-10-05T22:32:54.111Z,90.83
2022-10-05T22:35:23.979Z,91.08
2022-10-05T22:37:55.258Z,90.99
2022-10-05T22:40:24.894Z,90.62
2022-10-05T22:42:55.070Z,90.36
2022-10-05T22:45:30.315Z,90.22
2022-10-05T22:48:02.171Z,90.79
2022-10-05T22:50:32.275Z,90.63
2022-10-05T22:53:03.533Z,90.19
2022-10-05T22:55:33.436Z,90.00
2022-10-05T22:58:04.286Z,90.46
2022-10-05T23:00:56.583Z,90.34
2022-10-05T23:03:24.202Z,90.00
2022-10-05T23:06:00.514Z,89.96
2022-10-05T23:08:32.555Z,89.90
2022-10-05T23:11:06.660Z,90.03
2022-10-05T23:13:36.791Z,90.37
2022-10-05T23:16:11.888Z,90.22
2022-10-05T23:18:42.841Z,89.97
2022-10-05T23:21:13.639Z,89.99
2022-10-05T23:23:49.269Z,89.88
2022-10-05T23:26:22.988Z,89.74
2022-10-05T23:28:52.990Z,89.68
2022-10-05T23:31:25.374Z,89.71
2022-10-05T23:33:55.230Z,89.48
2022-10-05T23:36:27.154Z,89.61
2022-10-05T23:38:58.614Z,90.10
2022-10-05T23:41:28.634Z,89.91
2022-10-05T23:43:58.455Z,90.25
2022-10-05T23:46:28.378Z,89.87
2022-10-05T23:48:58.139Z,89.62
2022-10-05T23:51:28.312Z,89.78
2022-10-05T23:53:59.601Z,89.66
2022-10-05T23:56:29.537Z,89.43
2022-10-05T23:58:59.209Z,89.76
